createdAt,value
2022-08-26T00:04:07.967Z,20.78
2022-08-26T00:09:09.271Z,20.68
2022-08-26T00:14:11.033Z,20.65
2022-08-26T00:19:12.090Z,20.70
2022-08-26T00:24:14.581Z,20.70
2022-08-26T00:29:16.062Z,20.79
2022-08-26T00:34:19.239Z,20.71
2022-08-26T00:39:20.625Z,20.66
2022-08-26T00:44:21.730Z,20.68
2022-08-26T00:49:35.017Z,20.64
2022-08-26T00:54:40.417Z,20.69
2022-08-26T00:59:52.273Z,20.66
2022-08-26T01:04:58.305Z,20.59
2022-08-26T01:10:01.440Z,20.62
2022-08-26T01:15:02.865Z,20.60
2022-08-26T01:20:31.477Z,20.58
2022-08-26T01:25:38.334Z,20.51
2022-08-26T01:30:41.381Z,20.51
2022-08-26T01:35:44.154Z,20.32
2022-08-26T01:40:46.260Z,20.26
2022-08-26T01:45:48.658Z,20.16
2022-08-26T01:50:51.249Z,20.29
2022-08-26T01:55:56.400Z,20.26
2022-08-26T02:00:58.128Z,20.21
2022-08-26T02:06:03.735Z,20.24
2022-08-26T02:11:06.020Z,20.20
2022-08-26T02:16:08.498Z,20.12
2022-08-26T02:21:11.313Z,20.29
2022-08-26T02:26:18.057Z,19.96
2022-08-26T02:31:20.247Z,19.85
2022-08-26T02:36:28.450Z,19.80
2022-08-26T02:41:29.853Z,19.84
2022-08-26T02:46:33.967Z,20.03
2022-08-26T02:51:35.687Z,20.12
2022-08-26T02:56:36.647Z,20.22
2022-08-26T03:01:39.737Z,20.26
2022-08-26T03:06:41.622Z,20.29
2022-08-26T03:11:42.621Z,20.69
2022-08-26T03:16:44.611Z,20.89
2022-08-26T03:21:51.611Z,21.00
2022-08-26T03:26:53.295Z,21.00
2022-08-26T03:31:54.678Z,21.02
2022-08-26T03:36:55.531Z,20.94
2022-08-26T03:41:58.247Z,20.78
2022-08-26T03:46:59.107Z,20.62
2022-08-26T03:52:00.020Z,20.53
2022-08-26T03:57:01.333Z,20.28
2022-08-26T04:02:02.337Z,20.19
2022-08-26T04:07:03.529Z,20.20
2022-08-26T04:12:05.265Z,20.02
2022-08-26T04:17:06.128Z,19.98
2022-08-26T04:22:07.774Z,20.01
2022-08-26T04:27:09.658Z,19.88
2022-08-26T04:32:10.493Z,19.73
2022-08-26T04:37:12.506Z,19.56
2022-08-26T04:42:14.934Z,19.48
2022-08-26T04:47:16.011Z,19.47
2022-08-26T04:52:17.108Z,19.29
2022-08-26T04:57:17.911Z,19.28
2022-08-26T05:02:18.800Z,19.24
2022-08-26T05:07:19.929Z,19.28
2022-08-26T05:12:20.870Z,19.20
2022-08-26T05:17:22.248Z,19.09
2022-08-26T05:22:23.146Z,19.03
2022-08-26T05:27:23.943Z,18.98
2022-08-26T05:32:24.995Z,18.96
2022-08-26T05:37:25.844Z,19.05
2022-08-26T05:42:27.244Z,19.27
2022-08-26T05:47:29.230Z,19.42
2022-08-26T05:52:31.724Z,19.69
2022-08-26T05:57:33.902Z,19.87
2022-08-26T06:02:38.291Z,19.97
2022-08-26T06:07:57.757Z,20.04
2022-08-26T06:13:09.198Z,20.22
2022-08-26T06:18:14.531Z,20.34
2022-08-26T06:23:34.748Z,20.56
2022-08-26T06:28:35.643Z,20.68
2022-08-26T06:33:37.978Z,20.54
2022-08-26T06:38:41.125Z,20.70
2022-08-26T06:43:43.064Z,20.84
2022-08-26T06:48:44.223Z,21.07
2022-08-26T06:53:47.416Z,21.31
2022-08-26T06:58:49.753Z,21.38
2022-08-26T07:03:52.533Z,21.33
2022-08-26T07:09:03.383Z,21.19
2022-08-26T07:14:05.357Z,21.41
2022-08-26T07:19:11.223Z,21.48
2022-08-26T07:24:12.512Z,21.65
2022-08-26T07:29:14.145Z,21.59
2022-08-26T07:34:16.387Z,21.66
2022-08-26T07:39:19.291Z,21.77
2022-08-26T07:44:21.198Z,21.81
2022-08-26T07:49:23.710Z,22.04
2022-08-26T07:54:26.814Z,22.02
2022-08-26T07:59:28.100Z,21.96
2022-08-26T08:04:31.843Z,22.27
2022-08-26T08:09:32.735Z,22.46
2022-08-26T08:14:35.732Z,22.71
2022-08-26T08:19:39.190Z,22.97
2022-08-26T08:24:40.222Z,22.96
2022-08-26T08:29:41.072Z,23.11
2022-08-26T08:39:42.777Z,22.91
2022-08-26T08:44:52.262Z,23.14
2022-08-26T08:49:59.345Z,23.49
2022-08-26T08:55:01.827Z,23.71
2022-08-26T09:00:13.316Z,23.87
2022-08-26T09:05:27.740Z,23.88
2022-08-26T09:10:36.371Z,24.13
2022-08-26T09:16:19.210Z,24.43
2022-08-26T09:21:22.902Z,24.58
2022-08-26T09:26:44.570Z,24.78
2022-08-26T09:31:45.733Z,25.11
2022-08-26T09:36:48.861Z,25.28
2022-08-26T09:42:20.078Z,25.56
2022-08-26T09:47:25.894Z,25.63
2022-08-26T09:52:27.062Z,25.78
2022-08-26T09:57:32.441Z,26.23
2022-08-26T10:02:40.798Z,26.64
2022-08-26T10:07:50.445Z,27.23
2022-08-26T10:13:05.966Z,27.63
2022-08-26T10:18:23.876Z,27.92
2022-08-26T10:23:28.606Z,27.95
2022-08-26T10:28:45.664Z,28.03
2022-08-26T10:33:46.599Z,28.05
2022-08-26T10:38:47.990Z,28.43
2022-08-26T10:43:56.177Z,28.73
2022-08-26T10:49:04.559Z,28.85
2022-08-26T10:54:19.067Z,28.96
2022-08-26T11:00:28.905Z,29.50
2022-08-26T11:05:29.948Z,29.48
2022-08-26T11:11:04.387Z,29.75
2022-08-26T11:16:07.485Z,29.80
2022-08-26T11:23:50.332Z,30.34
2022-08-26T11:28:52.549Z,29.38
2022-08-26T11:33:59.488Z,29.15
2022-08-26T11:39:20.592Z,29.32
2022-08-26T11:44:23.520Z,29.75
2022-08-26T11:49:28.204Z,29.31
2022-08-26T11:54:35.718Z,29.63
2022-08-26T11:59:40.035Z,29.78
2022-08-26T12:04:48.866Z,29.63
2022-08-26T12:09:54.416Z,29.57
2022-08-26T12:15:18.357Z,29.86
2022-08-26T12:20:47.412Z,29.10
2022-08-26T12:25:51.165Z,29.11
2022-08-26T12:31:04.366Z,29.10
2022-08-26T12:36:06.038Z,29.48
2022-08-26T12:41:06.990Z,29.32
2022-08-26T12:46:15.553Z,29.74
2022-08-26T12:51:24.900Z,29.43
2022-08-26T12:57:08.048Z,29.06
2022-08-26T13:02:09.594Z,29.10
2022-08-26T13:07:28.732Z,28.94
2022-08-26T13:12:32.769Z,28.54
2022-08-26T13:17:35.114Z,28.64
2022-08-26T13:22:36.678Z,28.37
2022-08-26T13:27:38.181Z,28.83
2022-08-26T13:32:39.060Z,29.16
2022-08-26T13:37:40.008Z,28.73
2022-08-26T13:42:49.486Z,28.24
2022-08-26T13:47:51.247Z,28.39
2022-08-26T13:52:52.751Z,28.27
2022-08-26T13:57:55.004Z,27.31
2022-08-26T14:02:56.023Z,26.62
2022-08-26T14:07:57.269Z,26.26
2022-08-26T14:12:58.848Z,25.93
2022-08-26T14:18:02.302Z,25.90
2022-08-26T14:23:13.655Z,25.77
2022-08-26T14:28:15.727Z,25.50
2022-08-26T14:33:19.372Z,25.32
2022-08-26T14:38:20.662Z,25.14
2022-08-26T14:43:21.556Z,25.05
2022-08-26T14:48:22.473Z,24.82
2022-08-26T14:53:41.465Z,24.75
2022-08-26T14:58:43.233Z,24.51
2022-08-26T15:03:44.321Z,24.19
2022-08-26T15:08:45.187Z,23.94
2022-08-26T15:13:46.569Z,23.78
2022-08-26T15:18:48.587Z,23.68
2022-08-26T15:23:51.655Z,23.64
2022-08-26T15:28:52.695Z,23.57
2022-08-26T15:33:55.619Z,23.36
2022-08-26T15:38:59.219Z,23.37
2022-08-26T15:44:01.192Z,23.20
2022-08-26T15:49:05.338Z,22.94
2022-08-26T15:54:10.276Z,22.59
2022-08-26T15:59:11.645Z,22.53
2022-08-26T16:04:13.818Z,22.40
2022-08-26T16:09:15.421Z,22.40
2022-08-26T16:14:16.310Z,22.30
2022-08-26T16:19:17.599Z,21.98
2022-08-26T16:24:27.118Z,21.99
2022-08-26T16:29:31.825Z,21.80
2022-08-26T16:34:32.654Z,21.87
2022-08-26T16:39:33.514Z,21.70
2022-08-26T16:44:43.814Z,21.62
2022-08-26T16:49:45.932Z,21.53
2022-08-26T16:54:46.822Z,21.56
2022-08-26T16:59:47.892Z,21.41
2022-08-26T17:04:50.224Z,21.35
2022-08-26T17:09:51.349Z,21.32
2022-08-26T17:14:52.132Z,21.25
2022-08-26T17:19:53.407Z,21.23
2022-08-26T17:24:54.215Z,21.25
2022-08-26T17:29:55.547Z,21.12
2022-08-26T17:34:57.074Z,21.20
2022-08-26T17:39:58.025Z,21.19
2022-08-26T17:44:59.055Z,21.11
2022-08-26T17:50:03.784Z,21.02
2022-08-26T17:55:06.392Z,20.98
2022-08-26T18:00:11.998Z,20.84
2022-08-26T18:05:14.713Z,20.83
2022-08-26T18:10:16.952Z,20.63
2022-08-26T18:15:18.335Z,20.59
2022-08-26T18:20:19.726Z,20.59
2022-08-26T18:25:20.824Z,20.50
2022-08-26T18:30:21.993Z,20.38
2022-08-26T18:35:27.523Z,20.35
2022-08-26T18:40:28.433Z,20.30
2022-08-26T18:45:29.609Z,20.12
2022-08-26T18:50:30.469Z,20.13
2022-08-26T18:55:31.498Z,20.18
2022-08-26T19:00:32.495Z,20.07
2022-08-26T19:05:39.561Z,19.91
2022-08-26T19:10:40.799Z,19.82
2022-08-26T19:15:43.750Z,19.84
2022-08-26T19:20:46.857Z,19.72
2022-08-26T19:25:51.370Z,19.78
2022-08-26T19:30:53.247Z,19.73
2022-08-26T19:35:54.938Z,19.83
2022-08-26T19:40:55.821Z,19.70
2022-08-26T19:45:56.942Z,19.70
2022-08-26T19:50:58.478Z,19.70
2022-08-26T19:55:59.399Z,19.74
2022-08-26T20:01:00.407Z,19.69
2022-08-26T20:06:07.497Z,19.68
2022-08-26T20:11:11.745Z,19.54
2022-08-26T20:16:14.725Z,19.46
2022-08-26T20:21:28.386Z,19.47
2022-08-26T20:26:33.958Z,19.32
2022-08-26T20:31:35.540Z,19.34
2022-08-26T20:36:38.282Z,19.33
2022-08-26T20:41:39.892Z,19.17
2022-08-26T20:46:40.763Z,19.11
2022-08-26T20:51:44.727Z,19.14
2022-08-26T20:56:46.658Z,19.24
2022-08-26T21:01:48.375Z,19.27
2022-08-26T21:06:52.814Z,19.28
2022-08-26T21:11:54.427Z,19.32
2022-08-26T21:16:55.306Z,19.22
2022-08-26T21:21:56.136Z,19.38
2022-08-26T21:26:57.468Z,19.23
2022-08-26T21:31:58.592Z,19.03
2022-08-26T21:36:59.771Z,19.05
2022-08-26T21:42:00.960Z,18.90
2022-08-26T21:47:04.078Z,18.83
2022-08-26T21:52:05.433Z,18.64
2022-08-26T21:57:06.555Z,18.68
2022-08-26T22:02:07.610Z,18.54
2022-08-26T22:07:08.516Z,18.56
2022-08-26T22:12:11.194Z,18.52
2022-08-26T22:17:12.303Z,18.50
2022-08-26T22:22:14.049Z,18.44
2022-08-26T22:27:14.876Z,18.45
2022-08-26T22:32:17.824Z,18.53
2022-08-26T22:37:18.625Z,18.41
2022-08-26T22:42:19.515Z,18.43
2022-08-26T22:47:20.375Z,18.32
2022-08-26T22:52:21.242Z,18.25
2022-08-26T22:57:22.094Z,18.27
2022-08-26T23:02:23.499Z,18.26
2022-08-26T23:07:24.373Z,18.37
2022-08-26T23:12:27.037Z,18.32
2022-08-26T23:17:27.865Z,18.30
2022-08-26T23:22:28.724Z,18.24
2022-08-26T23:27:29.585Z,18.15
2022-08-26T23:32:30.730Z,18.27
2022-08-26T23:37:38.187Z,18.24
2022-08-26T23:42:41.464Z,18.19
2022-08-26T23:47:42.303Z,18.37
2022-08-26T23:53:01.509Z,18.30
2022-08-26T23:58:03.001Z,18.27
